Time;durP1;ratioP1;P1;durP2;ratioP2;P2;SDS_P1;SDS_P2;PMS_P1;PMS_P2;Temp;Humidity;BMP_temperature;BMP_pressure;BME280_temperature;BME280_humidity;BME280_pressure;Samples;Min_cycle;Max_cycle;Signal;HPM_P1;HPM_P2
2022/07/19 00:02:14;;;;;;;6.72;1.63;;;;;12.30;98446.00;;;;5040888;28;87979;-61
2022/07/19 00:04:40;;;;;;;4.25;1.70;;;12.30;99.90;12.20;98446.00;;;;5041194;27;87773;-61
2022/07/19 00:07:06;;;;;;;4.13;1.50;;;12.30;99.90;12.20;98454.00;;;;5043125;27;86179;-61
2022/07/19 00:09:33;;;;;;;5.80;1.30;;;12.40;99.90;12.20;98442.00;;;;5043633;28;86993;-61
2022/07/19 00:11:59;;;;;;;3.47;1.33;;;12.30;99.90;12.20;98445.00;;;;5043798;27;86982;-61
2022/07/19 00:14:25;;;;;;;4.20;1.35;;;12.20;99.90;12.20;98436.00;;;;5042379;27;90412;-61
2022/07/19 00:16:51;;;;;;;3.53;1.33;;;12.20;99.90;12.10;98440.00;;;;5037486;27;89067;-61
2022/07/19 00:19:18;;;;;;;4.88;1.42;;;12.20;99.90;12.10;98437.00;;;;5042594;27;87401;-62
2022/07/19 00:21:44;;;;;;;4.22;1.50;;;12.10;99.90;12.10;98442.00;;;;5041831;28;87354;-61
2022/07/19 00:24:10;;;;;;;2.05;1.33;;;12.20;99.90;12.10;98441.00;;;;5037788;27;88700;-61
2022/07/19 00:26:36;;;;;;;5.45;2.03;;;12.10;99.90;12.00;98444.00;;;;5049991;27;88431;-62
2022/07/19 00:29:02;;;;;;;4.90;1.30;;;12.10;99.90;12.00;98435.00;;;;5042867;27;86942;-62
2022/07/19 00:31:29;;;;;;;4.70;1.40;;;12.00;99.90;11.90;98434.00;;;;5043096;27;86399;-62
2022/07/19 00:33:55;;;;;;;2.70;1.27;;;12.10;99.90;12.00;98437.00;;;;5042223;27;88012;-60
2022/07/19 00:36:21;;;;;;;5.88;1.30;;;12.00;99.90;12.00;98438.00;;;;5041462;28;87366;-61
2022/07/19 00:38:47;;;;;;;5.53;1.85;;;12.00;99.90;12.00;98438.00;;;;5042142;27;88746;-59
2022/07/19 00:41:15;;;;;;;3.03;1.40;;;12.00;99.90;11.90;98447.00;;;;5042628;27;87001;-61
2022/07/19 00:43:43;;;;;;;5.05;1.77;;;11.90;99.90;11.90;98439.00;;;;5040067;28;87456;-61
2022/07/19 00:46:14;;;;;;;2.97;1.42;;;11.90;99.90;11.80;98452.00;;;;5042580;28;88502;-61
2022/07/19 00:48:41;;;;;;;5.90;1.90;;;11.90;99.90;11.80;98436.00;;;;5042369;27;86895;-61
2022/07/19 00:51:14;;;;;;;4.32;1.83;;;11.90;99.90;11.80;98438.00;;;;5041847;27;86986;-61
2022/07/19 00:53:42;;;;;;;2.72;1.60;;;11.90;99.90;11.80;98441.00;;;;5040900;28;88777;-62
2022/07/19 00:56:10;;;;;;;7.82;1.92;;;11.80;99.90;11.70;98447.00;;;;5031434;28;87484;-60
2022/07/19 00:58:39;;;;;;;4.68;1.50;;;11.80;99.90;11.60;98450.00;;;;5030112;27;87060;-60
2022/07/19 01:01:07;;;;;;;5.65;2.08;;;11.80;99.90;11.60;98450.00;;;;5032137;28;87390;-60
2022/07/19 01:03:39;;;;;;;4.85;2.00;;;11.70;99.90;11.60;98452.00;;;;5042310;27;88699;-60
2022/07/19 01:06:08;;;;;;;5.28;1.80;;;11.70;99.90;11.60;98457.00;;;;5041971;28;88245;-59
2022/07/19 01:08:36;;;;;;;3.58;2.30;;;11.60;99.90;11.50;98442.00;;;;5042210;27;86897;-60
2022/07/19 01:11:05;;;;;;;6.93;2.10;;;11.70;99.90;11.60;98450.00;;;;5042377;28;87034;-59
2022/07/19 01:13:33;;;;;;;3.60;2.00;;;11.70;99.90;11.60;98450.00;;;;5042063;28;88292;-60
2022/07/19 01:16:00;;;;;;;6.40;2.33;;;11.60;99.90;11.60;98450.00;;;;5035568;27;87419;-60
2022/07/19 01:18:26;;;;;;;7.40;2.58;;;11.60;99.90;11.60;98444.00;;;;5040685;27;87025;-60
2022/07/19 01:20:53;;;;;;;10.85;2.55;;;11.70;99.90;11.60;98445.00;;;;5041010;28;86746;-60
2022/07/19 01:23:19;;;;;;;7.63;2.50;;;11.70;99.90;11.70;98449.00;;;;5038727;27;87726;-60
2022/07/19 01:25:45;;;;;;;6.20;2.55;;;11.70;99.90;11.70;98448.00;;;;5040013;27;88432;-59
2022/07/19 01:28:11;;;;;;;6.45;2.25;;;11.70;99.90;11.70;98450.00;;;;5040789;28;87882;-59
2022/07/19 01:30:37;;;;;;;8.07;2.80;;;11.70;99.90;11.70;98448.00;;;;5042382;27;86908;-59
2022/07/19 01:33:04;;;;;;;9.38;2.42;;;11.70;99.90;11.70;98447.00;;;;5041794;27;87663;-59
2022/07/19 01:35:30;;;;;;;10.77;2.05;;;11.70;99.90;11.70;98446.00;;;;5040618;28;87248;-59
2022/07/19 01:37:57;;;;;;;8.60;2.40;;;11.70;99.90;11.70;98452.00;;;;5042218;28;87094;-59
2022/07/19 01:40:24;;;;;;;5.25;2.15;;;11.70;99.90;11.60;98439.00;;;;5042563;28;86971;-59
2022/07/19 01:42:51;;;;;;;7.65;1.90;;;11.70;99.90;11.60;98450.00;;;;5049324;27;87662;-59
2022/07/19 01:45:18;;;;;;;7.63;2.63;;;11.70;99.90;11.70;98449.00;;;;5041997;27;88228;-60
2022/07/19 01:47:46;;;;;;;4.00;1.85;;;11.70;99.90;11.70;98453.00;;;;5041673;28;87613;-59
2022/07/19 01:50:15;;;;;;;5.28;1.75;;;11.70;99.90;11.70;98459.00;;;;5040949;28;87157;-59
2022/07/19 01:52:42;;;;;;;6.43;1.90;;;11.80;99.90;11.70;98455.00;;;;5040575;27;89519;-59
2022/07/19 01:55:08;;;;;;;12.98;2.28;;;11.70;99.90;11.70;98463.00;;;;5041596;27;88159;-60
2022/07/19 01:57:35;;;;;;;5.70;1.92;;;11.70;99.90;11.70;98450.00;;;;5041624;27;87317;-59
2022/07/19 02:00:01;;;;;;;7.25;2.10;;;11.80;99.90;11.70;98461.00;;;;5040407;27;87795;-59
2022/07/19 02:02:29;;;;;;;9.50;2.42;;;11.80;99.90;11.80;98462.00;;;;5039378;28;88717;-59
2022/07/19 02:04:55;;;;;;;8.85;2.20;;;11.90;99.90;11.80;98472.00;;;;5040885;28;88456;-60
2022/07/19 02:07:21;;;;;;;10.93;2.63;;;11.90;99.90;11.90;98462.00;;;;5053702;27;87016;-59
2022/07/19 02:09:47;;;;;;;13.35;2.40;;;11.90;99.90;11.90;98460.00;;;;5042427;27;86239;-60
2022/07/19 02:12:13;;;;;;;6.85;2.20;;;12.00;99.90;12.00;98463.00;;;;5041705;27;87538;-59
2022/07/19 02:14:39;;;;;;;6.72;2.10;;;12.00;99.90;12.10;98467.00;;;;5040452;28;87565;-59
2022/07/19 02:17:05;;;;;;;7.65;2.08;;;12.10;99.90;12.10;98469.00;;;;5036190;27;88467;-59
2022/07/19 02:19:31;;;;;;;5.25;1.95;;;12.10;99.90;12.20;98462.00;;;;5041134;28;87830;-59
2022/07/19 02:21:58;;;;;;;6.82;2.33;;;12.20;99.90;12.30;98465.00;;;;5041123;28;87656;-60
2022/07/19 02:24:24;;;;;;;4.97;1.80;;;12.30;99.90;12.40;98476.00;;;;5040756;27;87481;-59
2022/07/19 02:26:50;;;;;;;5.75;1.98;;;12.40;99.90;12.40;98467.00;;;;5038818;27;87412;-59
2022/07/19 02:29:16;;;;;;;7.47;1.60;;;12.40;99.90;12.40;98470.00;;;;5040882;27;87062;-59
2022/07/19 02:31:44;;;;;;;4.22;1.50;;;12.40;99.90;12.50;98472.00;;;;5040845;28;87624;-59
2022/07/19 02:34:10;;;;;;;6.45;2.00;;;12.50;99.90;12.50;98478.00;;;;5040396;28;87401;-59
2022/07/19 02:36:36;;;;;;;4.82;1.70;;;12.50;99.90;12.60;98466.00;;;;5039587;27;87011;-59
2022/07/19 02:39:02;;;;;;;3.35;1.73;;;12.60;99.90;12.60;98465.00;;;;5041458;28;86934;-59
2022/07/19 02:41:29;;;;;;;6.72;1.63;;;12.60;99.90;12.60;98475.00;;;;5040749;27;88199;-59
2022/07/19 02:43:55;;;;;;;4.22;1.40;;;12.60;99.90;12.60;98474.00;;;;5039387;27;88292;-59
2022/07/19 02:46:21;;;;;;;6.63;1.65;;;12.60;99.90;12.60;98479.00;;;;5041292;27;86858;-59
2022/07/19 02:48:47;;;;;;;5.70;1.52;;;12.70;99.90;12.70;98472.00;;;;5040610;27;86956;-59
2022/07/19 02:51:13;;;;;;;3.58;1.38;;;12.60;99.90;12.80;98465.00;;;;5040385;28;88560;-58
2022/07/19 02:53:39;;;;;;;3.10;1.20;;;12.80;99.90;12.90;98472.00;;;;5040305;27;87319;-58
2022/07/19 02:56:05;;;;;;;4.75;1.73;;;12.80;99.90;12.90;98483.00;;;;5036286;28;87127;-59
2022/07/19 02:58:32;;;;;;;3.28;1.30;;;12.80;99.90;12.90;98481.00;;;;5037379;28;86249;-59
2022/07/19 03:00:58;;;;;;;2.83;1.30;;;13.10;99.90;12.90;98480.00;;;;5040903;27;87538;-59
2022/07/19 03:06:09;;;;;;;4.70;1.10;;;12.90;99.90;12.90;98481.00;;;;5039980;28;88163;-59
2022/07/19 03:08:35;;;;;;;5.10;1.40;;;12.90;99.90;12.90;98480.00;;;;5040102;27;87180;-59
2022/07/19 03:11:02;;;;;;;2.83;1.23;;;12.90;99.90;12.90;98495.00;;;;5040713;27;88254;-59
2022/07/19 03:13:28;;;;;;;7.72;1.40;;;12.90;99.90;12.90;98485.00;;;;5039819;27;88387;-59
2022/07/19 03:15:54;;;;;;;3.60;1.40;;;12.90;99.90;13.00;98486.00;;;;5042467;27;87383;-59
2022/07/19 03:18:21;;;;;;;4.13;1.38;;;12.90;99.90;12.90;98487.00;;;;5029110;28;87654;-59
2022/07/19 03:20:47;;;;;;;5.10;1.20;;;12.90;99.90;13.00;98483.00;;;;5042992;27;87602;-59
2022/07/19 03:23:13;;;;;;;3.22;1.20;;;13.40;99.90;13.40;98482.00;;;;5043544;27;87257;-59
2022/07/19 03:25:39;;;;;;;7.57;1.40;;;14.00;99.90;14.10;98480.00;;;;5043279;28;86991;-59
2022/07/19 03:28:06;;;;;;;4.90;1.20;;;;;15.40;98481.00;;;;5043311;27;86972;-59
2022/07/19 03:30:32;;;;;;;3.65;1.48;;;16.10;99.90;16.40;98487.00;;;;5042588;28;88542;-59
2022/07/19 03:32:59;;;;;;;5.68;1.30;;;16.70;99.90;17.20;98490.00;;;;5043131;27;88280;-59
2022/07/19 03:35:25;;;;;;;4.40;1.10;;;17.20;99.90;17.70;98493.00;;;;5041969;28;87143;-60
2022/07/19 03:37:52;;;;;;;7.25;1.20;;;17.60;99.90;18.00;98482.00;;;;5052735;27;86972;-59
2022/07/19 03:40:18;;;;;;;4.00;1.10;;;17.60;99.90;17.60;98492.00;;;;5044330;27;87522;-59
2022/07/19 03:42:44;;;;;;;2.22;1.10;;;16.80;99.90;17.00;98496.00;;;;5043526;28;87536;-59
2022/07/19 03:45:10;;;;;;;4.45;1.10;;;16.70;99.90;16.20;98486.00;;;;5043550;28;86908;-58
2022/07/19 03:47:36;;;;;;;5.18;1.23;;;16.20;99.90;16.40;98490.00;;;;5034845;27;86361;-59
2022/07/19 03:50:04;;;;;;;2.85;1.42;;;16.20;99.90;16.80;98486.00;;;;5042731;27;87767;-58
2022/07/19 03:52:30;;;;;;;2.35;1.20;;;16.60;99.90;17.00;98490.00;;;;5043155;27;87165;-59
2022/07/19 03:54:56;;;;;;;1.52;1.05;;;17.10;99.90;17.40;98486.00;;;;5042384;27;88611;-59
2022/07/19 03:57:22;;;;;;;5.97;1.40;;;17.20;99.90;17.50;98497.00;;;;5037448;28;87018;-58
2022/07/19 03:59:48;;;;;;;4.20;1.85;;;17.20;99.90;17.90;98505.00;;;;5043238;28;87970;-59
2022/07/19 04:02:14;;;;;;;3.97;2.05;;;17.50;99.90;17.80;98495.00;;;;5043318;27;87703;-59
2022/07/19 04:04:41;;;;;;;7.60;1.50;;;17.50;99.90;17.90;98493.00;;;;5043098;27;86810;-59
2022/07/19 04:07:07;;;;;;;1.75;1.00;;;17.60;99.90;17.90;98496.00;;;;5039175;28;87481;-58
2022/07/19 04:09:33;;;;;;;3.47;1.10;;;17.50;99.90;17.50;98504.00;;;;5041867;28;88477;-59
2022/07/19 04:11:59;;;;;;;1.73;0.90;;;17.30;99.90;17.60;98497.00;;;;5043145;27;88393;-59
2022/07/19 04:14:25;;;;;;;3.17;1.35;;;17.30;99.90;17.80;98502.00;;;;5042908;27;86897;-59
2022/07/19 04:16:51;;;;;;;3.75;1.10;;;17.80;99.90;18.30;98498.00;;;;5043500;27;87220;-58
2022/07/19 04:19:17;;;;;;;2.53;1.10;;;17.80;99.90;17.40;98494.00;;;;5041407;27;88774;-59
2022/07/19 04:21:43;;;;;;;4.95;1.30;;;17.10;99.90;17.40;98495.00;;;;5042591;27;89373;-60
2022/07/19 04:24:10;;;;;;;3.97;0.95;;;17.20;99.90;17.60;98493.00;;;;5043170;27;86980;-61
2022/07/19 04:26:36;;;;;;;2.28;0.95;;;17.40;99.90;17.90;98490.00;;;;5041558;27;86963;-59
2022/07/19 04:29:02;;;;;;;4.70;1.00;;;17.70;99.90;18.30;98490.00;;;;5041651;28;87792;-60
2022/07/19 04:31:28;;;;;;;4.53;1.10;;;17.80;99.90;18.40;98495.00;;;;5042859;27;87617;-59
2022/07/19 04:33:54;;;;;;;4.10;1.23;;;17.90;99.90;18.40;98493.00;;;;5042356;27;87304;-59
2022/07/19 04:36:20;;;;;;;4.60;0.93;;;17.90;99.90;18.60;98493.00;;;;5042514;27;86229;-59
2022/07/19 04:38:46;;;;;;;7.43;1.08;;;18.50;99.90;19.00;98509.00;;;;5041139;27;88673;-61
2022/07/19 04:41:12;;;;;;;7.07;1.20;;;18.10;99.90;18.70;98493.00;;;;5042378;27;87566;-58
2022/07/19 04:43:39;;;;;;;7.13;1.30;;;18.20;99.90;18.80;98501.00;;;;5042427;27;87836;-59
2022/07/19 04:46:06;;;;;;;2.95;1.15;;;18.20;99.90;18.80;98503.00;;;;5042705;27;86946;-59
2022/07/19 04:48:32;;;;;;;4.22;0.93;;;18.20;99.90;18.70;98503.00;;;;5041290;27;87483;-59
2022/07/19 04:50:58;;;;;;;4.15;1.00;;;18.20;99.90;19.20;98507.00;;;;5041649;28;87815;-58
2022/07/19 04:53:25;;;;;;;3.47;1.10;;;18.60;99.90;18.80;98504.00;;;;5042281;27;87131;-59
2022/07/19 04:55:51;;;;;;;5.22;0.98;;;18.50;99.90;19.10;98503.00;;;;5041986;28;86969;-59
2022/07/19 04:58:17;;;;;;;3.92;1.05;;;18.20;99.90;18.90;98507.00;;;;5039195;27;87539;-59
2022/07/19 05:00:43;;;;;;;5.57;1.10;;;18.30;99.90;18.70;98507.00;;;;5042411;27;87663;-58
2022/07/19 05:03:09;;;;;;;3.80;1.02;;;18.40;99.90;19.10;98501.00;;;;5042310;27;87265;-59
2022/07/19 05:05:35;;;;;;;2.85;0.95;;;18.50;99.90;18.70;98495.00;;;;5042142;27;87394;-59
2022/07/19 05:08:02;;;;;;;2.30;0.77;;;18.40;99.90;18.70;98500.00;;;;5041430;28;89643;-59
2022/07/19 05:10:28;;;;;;;4.20;1.40;;;18.30;99.90;18.80;98501.00;;;;5041351;28;89379;-59
2022/07/19 05:12:54;;;;;;;4.35;0.82;;;18.60;99.90;19.10;98495.00;;;;5042210;27;86937;-59
2022/07/19 05:15:20;;;;;;;4.43;0.90;;;19.00;99.90;19.50;98500.00;;;;5041648;27;87144;-58
2022/07/19 05:17:46;;;;;;;3.50;0.82;;;18.70;99.90;19.30;98499.00;;;;5024472;27;88684;-59
2022/07/19 05:20:15;;;;;;;2.10;1.00;;;18.80;99.90;18.80;98499.00;;;;5040088;28;87381;-58
2022/07/19 05:22:42;;;;;;;3.90;1.25;;;18.50;99.90;19.00;98509.00;;;;5042389;27;86958;-58
2022/07/19 05:25:09;;;;;;;5.60;1.23;;;18.60;99.90;19.20;98506.00;;;;5041328;27;86532;-58
2022/07/19 05:27:37;;;;;;;2.10;0.80;;;18.80;99.90;19.20;98502.00;;;;5041158;28;88650;-58
2022/07/19 05:30:05;;;;;;;4.60;1.20;;;18.70;99.90;18.60;98521.00;;;;5041505;28;87605;-59
2022/07/19 05:32:32;;;;;;;3.38;0.90;;;18.20;99.90;18.60;98495.00;;;;5040445;27;87898;-58
2022/07/19 05:34:58;;;;;;;3.78;0.90;;;18.50;99.90;18.70;98490.00;;;;5041169;28;87037;-61
2022/07/19 05:37:24;;;;;;;2.25;0.77;;;18.30;99.90;19.50;98495.00;;;;5041118;28;87653;-58
2022/07/19 05:39:51;;;;;;;3.83;0.98;;;19.10;99.90;19.50;98495.00;;;;5041303;28;87414;-59
2022/07/19 05:42:17;;;;;;;1.23;0.70;;;19.10;99.90;19.40;98498.00;;;;5053947;27;87519;-59
2022/07/19 05:44:43;;;;;;;2.05;0.70;;;19.00;99.90;19.20;98512.00;;;;5045558;27;87334;-59
2022/07/19 05:47:09;;;;;;;5.05;1.05;;;18.50;99.90;18.60;98505.00;;;;5039731;28;89051;-59
2022/07/19 05:49:35;;;;;;;3.65;0.93;;;18.10;99.90;18.30;98506.00;;;;5040308;27;87274;-59
2022/07/19 05:52:01;;;;;;;2.17;0.93;;;18.50;99.90;18.80;98495.00;;;;5039587;28;87401;-59
2022/07/19 05:54:27;;;;;;;2.58;0.98;;;18.70;99.90;19.20;98515.00;;;;5040942;27;87030;-58
2022/07/19 05:56:54;;;;;;;2.15;0.82;;;18.50;99.90;19.00;98510.00;;;;5040028;27;88901;-59
2022/07/19 05:59:22;;;;;;;3.35;0.85;;;18.40;99.90;18.40;98498.00;;;;5033515;27;87957;-60
2022/07/19 06:01:49;;;;;;;2.40;0.70;;;18.10;99.90;18.50;98507.00;;;;5040462;28;87050;-59
2022/07/19 06:04:15;;;;;;;1.88;0.70;;;18.10;99.90;18.40;98512.00;;;;5040992;28;87457;-58
2022/07/19 06:06:41;;;;;;;1.90;0.77;;;18.30;99.90;18.50;98517.00;;;;5039666;28;88748;-59
2022/07/19 06:09:09;;;;;;;2.92;0.60;;;18.20;99.90;19.20;98508.00;;;;5040919;27;86958;-59
2022/07/19 06:11:36;;;;;;;1.52;0.70;;;18.60;99.90;19.00;98507.00;;;;5041010;28;86948;-59
2022/07/19 06:14:02;;;;;;;3.45;0.70;;;18.60;99.90;19.00;98509.00;;;;5041003;27;86359;-59
2022/07/19 06:16:29;;;;;;;1.77;0.77;;;18.00;99.90;18.20;98496.00;;;;5039865;27;88126;-59
2022/07/19 06:18:56;;;;;;;2.80;0.90;;;18.00;99.90;18.10;98495.00;;;;5040094;27;87110;-61
2022/07/19 06:21:22;;;;;;;1.27;0.80;;;17.60;99.90;18.00;98503.00;;;;5040578;28;87829;-61
2022/07/19 06:23:49;;;;;;;0.80;0.60;;;18.00;99.90;18.30;98510.00;;;;5036615;28;87782;-60
2022/07/19 06:26:16;;;;;;;2.53;0.90;;;18.00;99.90;18.90;98504.00;;;;5040864;27;87476;-59
2022/07/19 06:28:43;;;;;;;1.27;0.70;;;18.70;99.90;19.30;98512.00;;;;5040356;27;87362;-59
2022/07/19 06:31:14;;;;;;;1.90;0.65;;;18.60;99.90;19.00;98506.00;;;;5041335;27;87008;-59
2022/07/19 06:33:48;;;;;;;1.73;0.80;;;18.00;99.90;18.10;98519.00;;;;5038586;27;87120;-60
2022/07/19 06:36:15;;;;;;;0.65;0.50;;;17.80;99.90;18.00;98514.00;;;;5038839;27;90042;-60
2022/07/19 06:38:42;;;;;;;1.30;0.68;;;17.80;99.90;17.60;98513.00;;;;5041088;27;88396;-60
2022/07/19 06:41:10;;;;;;;1.67;0.70;;;17.70;99.90;17.80;98515.00;;;;5040572;28;86956;-60
2022/07/19 06:43:36;;;;;;;3.75;0.70;;;17.80;99.90;18.00;98524.00;;;;5040564;27;87397;-60
2022/07/19 06:46:03;;;;;;;1.40;0.70;;;17.70;99.90;17.80;98525.00;;;;5040045;28;88486;-60
2022/07/19 06:48:29;;;;;;;1.52;0.80;;;17.70;99.90;18.00;98520.00;;;;5039654;27;89457;-60
2022/07/19 06:50:55;;;;;;;1.98;0.70;;;17.70;99.90;17.70;98523.00;;;;5044016;28;87119;-60
2022/07/19 06:53:21;;;;;;;1.75;0.68;;;17.90;99.90;18.00;98513.00;;;;5042606;27;87158;-60
2022/07/19 06:55:48;;;;;;;1.45;0.70;;;17.80;99.90;18.00;98525.00;;;;5043451;27;88795;-60
2022/07/19 06:58:14;;;;;;;4.38;0.90;;;17.30;99.90;17.50;98527.00;;;;5036208;27;88392;-60
2022/07/19 07:00:40;;;;;;;0.65;0.55;;;17.60;99.90;17.70;98513.00;;;;5044162;27;87050;-61
2022/07/19 07:03:07;;;;;;;0.68;0.50;;;17.60;99.90;17.80;98529.00;;;;5044167;28;86503;-60
2022/07/19 07:05:34;;;;;;;1.23;0.60;;;17.50;99.90;17.70;98516.00;;;;5043923;28;87642;-60
2022/07/19 07:08:01;;;;;;;1.65;0.75;;;17.70;99.90;17.90;98524.00;;;;5044255;27;87252;-60
2022/07/19 07:10:27;;;;;;;2.65;1.02;;;17.90;99.90;18.10;98507.00;;;;5043367;27;87989;-60
2022/07/19 07:12:53;;;;;;;1.38;0.60;;;18.00;99.90;18.30;98509.00;;;;5044391;28;86923;-60
2022/07/19 07:15:19;;;;;;;4.93;0.90;;;18.10;99.90;18.20;98511.00;;;;5043613;27;87656;-61
2022/07/19 07:17:46;;;;;;;2.63;1.08;;;18.40;99.90;18.50;98512.00;;;;5043797;28;87264;-60
2022/07/19 07:20:12;;;;;;;2.20;0.70;;;18.20;99.90;18.30;98511.00;;;;5047755;27;87764;-60
2022/07/19 07:22:39;;;;;;;1.67;0.90;;;18.40;99.90;18.50;98511.00;;;;5041912;28;86988;-61
2022/07/19 07:25:06;;;;;;;1.95;0.60;;;18.50;99.90;18.60;98520.00;;;;5038952;28;87753;-59
2022/07/19 07:27:33;;;;;;;4.80;0.80;;;18.60;99.90;18.70;98515.00;;;;5043151;27;88491;-59
2022/07/19 07:29:59;;;;;;;0.52;0.45;;;18.20;99.90;18.40;98525.00;;;;5036223;28;87022;-60
2022/07/19 07:32:26;;;;;;;1.40;0.82;;;18.20;99.90;18.40;98521.00;;;;5018312;28;87113;-59
2022/07/19 07:34:54;;;;;;;2.28;0.93;;;18.20;99.90;18.40;98525.00;;;;5040400;27;91477;-59
2022/07/19 07:37:20;;;;;;;3.15;0.80;;;18.10;99.90;18.30;98521.00;;;;5040954;27;89712;-59
2022/07/19 07:39:46;;;;;;;2.28;0.90;;;18.20;99.90;18.50;98536.00;;;;5048225;27;87356;-59
2022/07/19 07:42:14;;;;;;;3.75;0.70;;;18.40;99.90;18.50;98519.00;;;;5041358;28;87680;-59
2022/07/19 07:44:41;;;;;;;2.33;0.70;;;18.50;99.90;18.60;98526.00;;;;5037903;27;87644;-59
2022/07/19 07:47:10;;;;;;;1.83;0.70;;;18.70;99.90;18.80;98531.00;;;;5040372;28;87597;-59
2022/07/19 07:49:38;;;;;;;2.72;0.75;;;18.40;99.90;18.40;98523.00;;;;5041259;27;87570;-59
2022/07/19 07:52:05;;;;;;;5.13;1.08;;;18.60;99.90;18.80;98531.00;;;;5041423;28;86703;-59
2022/07/19 07:54:32;;;;;;;2.35;1.08;;;18.60;99.90;18.60;98540.00;;;;5037078;27;88903;-59
2022/07/19 07:56:59;;;;;;;4.57;1.00;;;;;18.20;98536.00;;;;5040976;28;87207;-61
2022/07/19 07:59:25;;;;;;;3.88;1.20;;;18.00;99.90;18.10;98513.00;;;;5040877;27;88231;-60
2022/07/19 08:01:51;;;;;;;2.38;0.70;;;18.10;99.90;18.30;98521.00;;;;5040001;27;87660;-59
2022/07/19 08:04:17;;;;;;;3.47;0.77;;;18.20;99.90;18.40;98515.00;;;;5041014;27;87216;-59
2022/07/19 08:06:43;;;;;;;1.75;0.60;;;18.60;99.90;18.80;98511.00;;;;5040747;28;87375;-59
2022/07/19 08:09:10;;;;;;;0.80;0.50;;;18.80;99.90;19.00;98530.00;;;;5035507;28;87073;-59
2022/07/19 08:11:36;;;;;;;4.00;0.60;;;18.40;99.90;18.60;98534.00;;;;5039685;27;86981;-59
2022/07/19 08:14:02;;;;;;;2.05;0.98;;;18.40;99.90;18.70;98547.00;;;;5039402;28;87737;-59
2022/07/19 08:16:28;;;;;;;1.10;0.50;;;18.50;99.90;18.50;98530.00;;;;5039067;28;87223;-59
2022/07/19 08:18:54;;;;;;;1.35;0.52;;;18.50;99.90;18.80;98528.00;;;;5036437;28;87632;-60
2022/07/19 08:21:21;;;;;;;2.08;0.63;;;19.00;99.90;19.10;98529.00;;;;5039972;27;88045;-60
2022/07/19 08:23:47;;;;;;;4.43;0.60;;;19.20;99.90;19.40;98528.00;;;;5035063;28;88631;-60
2022/07/19 08:26:13;;;;;;;1.45;0.63;;;19.20;99.90;19.40;98539.00;;;;5040210;27;88440;-60
2022/07/19 08:28:39;;;;;;;1.98;0.93;;;19.20;99.90;19.50;98546.00;;;;5040023;27;87285;-59
2022/07/19 08:31:05;;;;;;;4.43;1.10;;;19.10;99.90;19.40;98541.00;;;;5040490;27;87413;-60
2022/07/19 08:33:31;;;;;;;4.57;0.90;;;19.10;99.90;19.50;98547.00;;;;5039256;28;87601;-60
2022/07/19 08:35:57;;;;;;;2.90;0.65;;;18.90;99.90;19.00;98549.00;;;;5040229;28;87299;-60
2022/07/19 08:38:24;;;;;;;2.03;0.80;;;19.10;99.90;19.40;98544.00;;;;5039900;27;86971;-60
2022/07/19 08:40:53;;;;;;;2.17;1.10;;;19.30;99.90;19.50;98527.00;;;;5040650;28;86392;-60
2022/07/19 08:43:21;;;;;;;5.22;0.85;;;19.50;99.90;19.70;98541.00;;;;5038436;28;88453;-60
2022/07/19 08:45:48;;;;;;;3.60;0.95;;;19.60;99.90;19.80;98528.00;;;;5038201;28;88219;-60
2022/07/19 08:48:15;;;;;;;1.80;0.70;;;19.60;99.90;20.20;98524.00;;;;5038322;27;87944;-59
2022/07/19 08:50:41;;;;;;;1.90;0.63;;;20.10;99.90;20.40;98524.00;;;;5038521;28;86978;-58
2022/07/19 08:53:07;;;;;;;4.55;0.50;;;19.70;99.90;20.00;98542.00;;;;5039629;28;88673;-58
2022/07/19 08:55:33;;;;;;;0.95;0.47;;;19.50;99.90;19.60;98518.00;;;;5039294;27;87462;-60
2022/07/19 08:58:02;;;;;;;2.70;1.02;;;19.20;99.90;19.50;98538.00;;;;5040156;27;87318;-61
2022/07/19 09:00:31;;;;;;;0.77;0.43;;;19.10;99.90;19.40;98536.00;;;;5040247;27;87019;-60
2022/07/19 09:03:06;;;;;;;2.55;0.70;;;18.80;99.90;19.10;98541.00;;;;5026006;28;87527;-60
2022/07/19 09:05:34;;;;;;;1.02;0.63;;;18.90;99.90;19.10;98522.00;;;;5040819;27;87214;-62
2022/07/19 09:08:10;;;;;;;2.08;0.50;;;19.00;99.90;19.20;98547.00;;;;5040067;28;87275;-62
2022/07/19 09:13:32;;;;;;;3.53;0.63;;;18.80;99.90;19.30;98524.00;;;;5021317;27;88736;-62
2022/07/19 09:15:58;;;;;;;3.63;0.63;;;19.00;99.90;19.70;98519.00;;;;5038960;27;88368;-61
2022/07/19 09:18:37;;;;;;;2.95;0.70;;;19.80;99.90;20.10;98507.00;;;;5039427;28;87423;-61
2022/07/19 09:21:06;;;;;;;3.90;0.60;;;19.80;99.90;20.20;98507.00;;;;5038807;28;87716;-61
2022/07/19 09:23:33;;;;;;;1.70;0.70;;;19.60;99.90;19.90;98527.00;;;;5031446;27;87567;-60
2022/07/19 09:26:04;;;;;;;3.08;0.60;;;19.30;99.90;19.60;98517.00;;;;5038812;27;87697;-61
2022/07/19 09:28:34;;;;;;;1.33;0.60;;;19.20;99.90;19.50;98515.00;;;;5038582;28;87415;-61
2022/07/19 09:31:02;;;;;;;1.37;0.60;;;;;19.50;98530.00;;;;5039771;27;86132;-61
2022/07/19 09:33:31;;;;;;;6.25;1.30;;;18.90;99.90;19.20;98537.00;;;;5038286;28;89041;-61
2022/07/19 09:36:12;;;;;;;2.35;0.70;;;18.90;99.90;19.20;98520.00;;;;5038292;27;88576;-62
2022/07/19 09:38:42;;;;;;;2.72;0.63;;;19.00;99.90;19.30;98534.00;;;;5039130;27;88243;-62
2022/07/19 09:41:14;;;;;;;1.85;0.80;;;19.20;99.90;19.50;98513.00;;;;5039430;27;87059;-63
2022/07/19 09:43:56;;;;;;;2.92;0.70;;;19.50;99.90;19.90;98524.00;;;;5038128;28;87578;-62
2022/07/19 09:46:40;;;;;;;1.92;0.73;;;19.90;99.90;20.10;98518.00;;;;5036461;28;87239;-62
2022/07/19 09:49:14;;;;;;;2.38;0.80;;;20.20;99.90;20.50;98507.00;;;;5035199;27;86964;-62
2022/07/19 09:51:47;;;;;;;2.95;0.70;;;20.20;99.90;20.60;98518.00;;;;5039744;27;87390;-62
2022/07/19 09:54:20;;;;;;;1.25;0.70;;;19.80;99.90;20.20;98515.00;;;;5039234;27;87225;-62
2022/07/19 09:56:49;;;;;;;3.97;0.85;;;19.80;99.90;20.10;98509.00;;;;5032412;28;87819;-62
2022/07/19 09:59:18;;;;;;;4.95;0.80;;;19.60;99.90;19.90;98524.00;;;;5020325;27;87295;-61
2022/07/19 10:01:48;;;;;;;1.70;0.70;;;19.20;99.90;19.60;98505.00;;;;5028373;28;86964;-61
2022/07/19 10:04:18;;;;;;;0.63;0.50;;;19.20;99.90;19.50;98511.00;;;;5038755;27;89232;-61
2022/07/19 10:06:46;;;;;;;1.30;0.57;;;19.30;99.90;19.60;98514.00;;;;5036417;27;90064;-61
2022/07/19 10:09:16;;;;;;;1.48;0.60;;;19.50;99.90;19.80;98520.00;;;;5038647;27;86897;-62
2022/07/19 10:11:43;;;;;;;4.38;0.90;;;19.00;99.90;19.30;98519.00;;;;5038878;27;86905;-61
2022/07/19 10:14:10;;;;;;;4.93;0.90;;;19.20;99.90;19.60;98507.00;;;;5037957;27;87352;-61
2022/07/19 10:16:53;;;;;;;1.40;0.73;;;19.20;99.90;19.60;98520.00;;;;5036371;27;88475;-61
2022/07/19 10:19:48;;;;;;;2.45;0.85;;;19.30;99.90;19.70;98520.00;;;;5039278;27;86989;-61
2022/07/19 10:22:21;;;;;;;1.55;0.68;;;19.50;99.90;19.90;98520.00;;;;5033204;27;86255;-61
2022/07/19 10:24:50;;;;;;;7.78;0.85;;;19.50;99.90;19.90;98514.00;;;;5036886;27;88521;-61
2022/07/19 10:27:25;;;;;;;4.97;0.80;;;19.50;99.90;19.90;98524.00;;;;5036927;28;87368;-62
2022/07/19 10:29:58;;;;;;;2.30;0.60;;;19.40;99.90;19.80;98511.00;;;;5038748;27;88320;-61
2022/07/19 10:32:30;;;;;;;2.30;0.70;;;19.70;99.90;20.00;98501.00;;;;5038911;27;86937;-61
2022/07/19 10:35:19;;;;;;;4.60;0.77;;;20.00;99.90;20.30;98518.00;;;;5037087;27;87636;-61
2022/07/19 10:37:51;;;;;;;3.85;1.13;;;20.20;99.90;20.60;98509.00;;;;5036878;28;88750;-61
2022/07/19 10:40:56;;;;;;;3.33;1.35;;;20.40;99.90;20.70;98502.00;;;;5038888;28;87252;-61
2022/07/19 10:43:24;;;;;;;2.17;0.90;;;20.60;99.90;20.90;98514.00;;;;5045805;27;87263;-62
2022/07/19 10:45:57;;;;;;;5.15;0.93;;;20.70;99.90;21.00;98512.00;;;;5037909;28;87738;-62
2022/07/19 10:48:50;;;;;;;3.75;0.95;;;20.80;99.90;21.20;98511.00;;;;5038118;27;88305;-62
2022/07/19 10:51:35;;;;;;;1.63;0.80;;;20.70;99.90;21.10;98511.00;;;;5038345;27;87341;-62
2022/07/19 10:54:08;;;;;;;4.00;1.10;;;20.30;99.90;20.70;98508.00;;;;5038858;28;87248;-61
2022/07/19 10:56:41;;;;;;;0.90;0.60;;;20.70;99.90;21.00;98495.00;;;;5036773;27;88870;-62
2022/07/19 10:59:12;;;;;;;1.27;0.70;;;20.90;99.90;21.10;98498.00;;;;5038903;27;87328;-61
2022/07/19 11:01:59;;;;;;;2.10;0.63;;;20.50;99.90;20.90;98491.00;;;;5038131;27;86957;-61
2022/07/19 11:04:32;;;;;;;2.53;0.70;;;20.60;99.90;20.90;98495.00;;;;5039486;28;87134;-61